createdAt,value
2018-11-29T00:00:27.410Z,16.40
2018-11-29T00:01:27.413Z,18.50
2018-11-29T00:02:27.391Z,18.00
2018-11-29T00:03:27.381Z,17.40
2018-11-29T00:04:27.378Z,19.60
2018-11-29T00:05:27.361Z,17.70
2018-11-29T00:06:27.365Z,19.70
2018-11-29T00:07:27.335Z,19.20
2018-11-29T00:08:27.331Z,18.60
2018-11-29T00:09:27.319Z,19.40
2018-11-29T00:10:27.313Z,16.70
2018-11-29T00:11:27.320Z,21.30
2018-11-29T00:12:27.284Z,19.20
2018-11-29T00:13:27.280Z,16.90
2018-11-29T00:14:27.265Z,19.10
2018-11-29T00:15:27.251Z,17.10
2018-11-29T00:16:27.258Z,19.30
2018-11-29T00:17:27.230Z,19.80
2018-11-29T00:18:27.774Z,17.90
2018-11-29T00:19:27.214Z,18.00
2018-11-29T00:20:27.201Z,18.70
2018-11-29T00:21:27.198Z,19.10
2018-11-29T00:22:27.173Z,20.20
2018-11-29T00:23:27.169Z,17.50
2018-11-29T00:24:27.161Z,18.60
2018-11-29T00:25:27.144Z,17.10
2018-11-29T00:26:27.160Z,18.70
2018-11-29T00:27:27.129Z,16.50
2018-11-29T00:28:27.123Z,20.00
2018-11-29T00:29:27.103Z,16.60
2018-11-29T00:30:27.104Z,18.20
2018-11-29T00:31:27.105Z,19.50
2018-11-29T00:32:27.121Z,16.10
2018-11-29T00:33:27.066Z,17.20
2018-11-29T00:34:27.051Z,16.20
2018-11-29T00:35:27.039Z,17.10
2018-11-29T00:36:27.058Z,19.30
2018-11-29T00:37:27.019Z,18.30
2018-11-29T00:38:27.020Z,17.80
2018-11-29T00:39:27.003Z,19.50
2018-11-29T00:40:26.988Z,18.40
2018-11-29T00:41:26.987Z,17.30
2018-11-29T00:42:26.967Z,17.90
2018-11-29T00:43:26.953Z,18.20
2018-11-29T00:44:26.947Z,19.30
2018-11-29T00:45:26.937Z,18.00
2018-11-29T00:46:26.956Z,17.90
2018-11-29T00:47:26.917Z,19.30
2018-11-29T00:48:26.900Z,17.80
2018-11-29T00:49:26.891Z,17.90
2018-11-29T00:50:26.882Z,18.10
2018-11-29T00:51:26.871Z,17.60
2018-11-29T00:52:26.879Z,18.50
2018-11-29T00:53:26.871Z,19.70
2018-11-29T00:54:26.839Z,18.60
2018-11-29T00:55:26.829Z,18.00
2018-11-29T00:56:26.823Z,18.20
2018-11-29T00:57:26.823Z,19.40
2018-11-29T00:58:26.796Z,19.00
2018-11-29T00:59:26.791Z,18.00
2018-11-29T01:00:26.786Z,17.10
2018-11-29T01:01:26.764Z,18.60
2018-11-29T01:02:26.770Z,16.90
2018-11-29T01:03:26.741Z,17.10
2018-11-29T01:04:26.742Z,18.20
2018-11-29T01:05:26.773Z,19.00
2018-11-29T01:06:26.721Z,19.10
2018-11-29T01:07:26.715Z,17.70
2018-11-29T01:08:26.690Z,18.90
2018-11-29T01:09:26.680Z,17.70
2018-11-29T01:10:26.679Z,17.10
2018-11-29T01:11:26.666Z,15.40
2018-11-29T01:12:26.663Z,17.10
2018-11-29T01:13:26.638Z,17.00
2018-11-29T01:14:26.628Z,18.60
2018-11-29T01:15:26.619Z,18.50
2018-11-29T01:16:26.639Z,17.70
2018-11-29T01:17:26.613Z,17.90
2018-11-29T01:18:26.584Z,17.90
2018-11-29T01:19:26.582Z,17.40
2018-11-29T01:20:26.565Z,17.30
2018-11-29T01:21:26.557Z,18.00
2018-11-29T01:22:26.555Z,18.00
2018-11-29T01:23:26.539Z,17.10
2018-11-29T01:24:26.531Z,18.00
2018-11-29T01:25:26.513Z,18.10
2018-11-29T01:26:26.500Z,18.10
2018-11-29T01:27:26.506Z,18.40
2018-11-29T01:28:26.489Z,19.50
2018-11-29T01:29:26.472Z,18.70
2018-11-29T01:30:26.463Z,20.40
2018-11-29T01:31:26.445Z,20.20
2018-11-29T01:32:26.472Z,18.20
2018-11-29T01:33:26.428Z,17.40
2018-11-29T01:34:26.421Z,18.30
2018-11-29T01:35:26.403Z,18.40
2018-11-29T01:36:26.399Z,18.80
2018-11-29T01:37:26.380Z,21.10
2018-11-29T01:38:26.388Z,17.10
2018-11-29T01:39:26.360Z,19.40
2018-11-29T01:40:26.347Z,19.60
2018-11-29T01:41:26.339Z,19.80
2018-11-29T01:42:26.328Z,18.90
2018-11-29T01:43:26.336Z,18.20
2018-11-29T01:44:26.318Z,18.80
2018-11-29T01:45:26.293Z,18.00
2018-11-29T01:46:26.286Z,19.70
2018-11-29T01:47:26.279Z,18.70
2018-11-29T01:48:26.284Z,18.80
2018-11-29T01:49:26.254Z,19.90
2018-11-29T01:50:26.247Z,19.20
2018-11-29T01:51:26.234Z,18.60
2018-11-29T01:52:26.225Z,20.50
2018-11-29T01:53:26.225Z,18.20
2018-11-29T01:54:26.208Z,18.80
2018-11-29T01:55:26.193Z,18.60
2018-11-29T01:56:26.181Z,19.50
2018-11-29T01:57:26.172Z,19.00
2018-11-29T01:58:26.181Z,18.60
2018-11-29T01:59:26.152Z,16.90
2018-11-29T02:00:26.141Z,19.50
2018-11-29T02:01:26.130Z,18.30
2018-11-29T02:02:26.124Z,18.20
2018-11-29T02:03:26.123Z,19.70
2018-11-29T02:04:26.097Z,19.70
2018-11-29T02:05:26.085Z,20.00
2018-11-29T02:06:26.081Z,20.30
2018-11-29T02:07:26.063Z,20.60
2018-11-29T02:08:26.066Z,18.00
2018-11-29T02:09:26.054Z,19.90
2018-11-29T02:10:26.041Z,18.90
2018-11-29T02:11:26.026Z,19.50
2018-11-29T02:12:26.011Z,17.80
2018-11-29T02:13:26.015Z,18.30
2018-11-29T02:14:25.996Z,19.40
2018-11-29T02:15:25.989Z,17.90
2018-11-29T02:16:25.975Z,18.90
2018-11-29T02:17:25.959Z,17.80
2018-11-29T02:18:25.966Z,18.40
2018-11-29T02:19:25.938Z,19.90
2018-11-29T02:20:25.928Z,20.30
2018-11-29T02:21:25.919Z,17.90
2018-11-29T02:22:25.913Z,19.40
2018-11-29T02:23:25.914Z,19.70
2018-11-29T02:24:25.885Z,19.10
2018-11-29T02:25:25.891Z,20.00
2018-11-29T02:26:25.871Z,16.80
2018-11-29T02:27:25.855Z,18.90
2018-11-29T02:28:25.888Z,19.00
2018-11-29T02:29:25.836Z,19.10
2018-11-29T02:30:25.830Z,19.70
2018-11-29T02:31:25.822Z,18.00
2018-11-29T02:32:25.813Z,19.90
2018-11-29T02:33:25.810Z,21.30
2018-11-29T02:34:25.808Z,19.30
2018-11-29T02:35:25.773Z,20.60
2018-11-29T02:36:25.768Z,20.10
2018-11-29T02:37:25.753Z,20.20
2018-11-29T02:38:25.742Z,20.60
2018-11-29T02:39:25.748Z,19.40
2018-11-29T02:40:25.727Z,17.70
2018-11-29T02:41:25.714Z,18.30
2018-11-29T02:42:25.698Z,21.90
2018-11-29T02:43:25.690Z,18.10
2018-11-29T02:44:25.695Z,20.40
2018-11-29T02:45:25.685Z,19.20
2018-11-29T02:46:25.665Z,19.40
2018-11-29T02:47:25.655Z,18.60
2018-11-29T02:48:25.640Z,18.50
2018-11-29T02:49:25.639Z,18.60
2018-11-29T02:50:25.616Z,18.80
2018-11-29T02:51:25.608Z,20.30
2018-11-29T02:52:25.595Z,21.00
2018-11-29T02:53:25.592Z,19.10
2018-11-29T02:54:25.589Z,18.40
2018-11-29T02:55:25.570Z,20.00
2018-11-29T02:56:25.561Z,18.70
2018-11-29T02:57:25.544Z,18.20
2018-11-29T02:58:25.539Z,19.20
2018-11-29T02:59:25.539Z,19.70
2018-11-29T03:00:25.511Z,19.30
2018-11-29T03:01:25.505Z,20.70
2018-11-29T03:02:25.494Z,19.50
2018-11-29T03:03:25.483Z,19.20
2018-11-29T03:04:25.484Z,20.70
2018-11-29T03:05:25.464Z,20.00
2018-11-29T03:06:25.458Z,20.50
2018-11-29T03:07:25.444Z,20.60
2018-11-29T03:08:25.433Z,18.60
2018-11-29T03:09:25.437Z,21.40
2018-11-29T03:10:25.420Z,20.30
2018-11-29T03:11:25.409Z,19.30
2018-11-29T03:12:25.392Z,18.00
2018-11-29T03:13:25.376Z,20.40
2018-11-29T03:14:25.391Z,20.00
2018-11-29T03:15:25.374Z,20.40
2018-11-29T03:16:25.349Z,18.70
2018-11-29T03:17:25.338Z,18.10
2018-11-29T03:18:25.331Z,19.20
2018-11-29T03:19:25.330Z,18.80
2018-11-29T03:20:25.307Z,21.10
2018-11-29T03:21:25.297Z,18.70
2018-11-29T03:22:25.295Z,18.60
2018-11-29T03:23:25.276Z,18.00
2018-11-29T03:24:25.281Z,20.00
2018-11-29T03:25:25.256Z,19.70
2018-11-29T03:26:25.242Z,20.00
2018-11-29T03:27:25.237Z,19.80
2018-11-29T03:28:25.222Z,20.50
2018-11-29T03:29:25.220Z,18.70
2018-11-29T03:30:25.203Z,20.70
2018-11-29T03:31:25.191Z,20.80
2018-11-29T03:32:25.183Z,20.10
2018-11-29T03:33:25.178Z,20.70
2018-11-29T03:34:25.185Z,21.60
2018-11-29T03:35:25.150Z,20.90
2018-11-29T03:36:25.142Z,21.10
2018-11-29T03:37:25.128Z,18.80
2018-11-29T03:38:25.117Z,20.00
2018-11-29T03:39:25.109Z,21.40
2018-11-29T03:40:25.103Z,18.80
2018-11-29T03:41:25.090Z,18.80
2018-11-29T03:42:25.071Z,17.50
2018-11-29T03:43:25.074Z,18.50
2018-11-29T03:44:25.052Z,19.40
2018-11-29T03:45:25.059Z,19.10
2018-11-29T03:46:25.037Z,20.50
2018-11-29T03:47:25.023Z,18.70
2018-11-29T03:48:25.019Z,20.00
2018-11-29T03:49:25.005Z,18.10
2018-11-29T03:50:25.004Z,18.00
2018-11-29T03:51:24.978Z,20.40
2018-11-29T03:52:24.977Z,18.60
2018-11-29T03:53:24.958Z,20.40
2018-11-29T03:54:24.952Z,19.70
2018-11-29T03:55:24.955Z,18.40
2018-11-29T03:56:24.939Z,19.00
2018-11-29T03:57:24.917Z,19.40
2018-11-29T03:58:24.907Z,20.70
2018-11-29T03:59:24.896Z,18.90
2018-11-29T04:00:24.892Z,19.00
2018-11-29T04:01:24.873Z,18.60
2018-11-29T04:02:24.861Z,19.20
2018-11-29T04:03:24.849Z,18.90
2018-11-29T04:04:24.840Z,19.00
2018-11-29T04:05:24.857Z,19.40
2018-11-29T04:06:24.825Z,18.60
2018-11-29T04:07:24.811Z,19.10
2018-11-29T04:08:24.800Z,19.20
2018-11-29T04:09:24.789Z,18.70
2018-11-29T04:10:24.792Z,18.20
2018-11-29T04:11:24.767Z,18.40
2018-11-29T04:12:24.751Z,17.80
2018-11-29T04:13:24.750Z,19.80
2018-11-29T04:14:24.744Z,19.00
2018-11-29T04:15:24.737Z,20.40
2018-11-29T04:16:24.707Z,19.50
2018-11-29T04:17:24.705Z,21.00
2018-11-29T04:18:24.687Z,18.60
2018-11-29T04:19:24.679Z,18.60
2018-11-29T04:20:24.676Z,19.40
2018-11-29T04:21:24.657Z,19.20
2018-11-29T04:22:24.642Z,20.30
2018-11-29T04:23:24.637Z,18.20
2018-11-29T04:24:24.625Z,20.00
2018-11-29T04:25:24.630Z,19.40
2018-11-29T04:26:24.609Z,19.60
2018-11-29T04:27:24.592Z,20.80
2018-11-29T04:28:24.584Z,19.90
2018-11-29T04:29:24.576Z,20.70
2018-11-29T04:30:24.593Z,20.00
2018-11-29T04:31:24.553Z,19.90
2018-11-29T04:32:24.544Z,19.60
2018-11-29T04:33:24.530Z,19.60
2018-11-29T04:34:24.522Z,17.80
2018-11-29T04:35:24.512Z,19.60
2018-11-29T04:36:24.519Z,20.90
2018-11-29T04:37:24.489Z,20.10
2018-11-29T04:38:24.488Z,20.80
2018-11-29T04:39:24.479Z,18.70
2018-11-29T04:40:24.458Z,18.90
2018-11-29T04:41:24.484Z,22.40
2018-11-29T04:42:24.432Z,19.30
2018-11-29T04:43:24.426Z,19.40
2018-11-29T04:44:24.416Z,21.20
2018-11-29T04:45:24.398Z,21.00
2018-11-29T04:46:24.428Z,18.80
2018-11-29T04:47:24.391Z,19.30
2018-11-29T04:48:24.372Z,19.50
2018-11-29T04:49:24.371Z,19.20
2018-11-29T04:50:24.348Z,21.20
2018-11-29T04:51:24.351Z,20.50
2018-11-29T04:52:24.331Z,19.70
2018-11-29T04:53:24.321Z,20.90
2018-11-29T04:54:24.308Z,19.90
2018-11-29T04:55:24.296Z,19.90
2018-11-29T04:56:24.298Z,20.40
2018-11-29T04:57:24.272Z,19.70
2018-11-29T04:58:24.272Z,20.80
2018-11-29T04:59:24.254Z,17.60
2018-11-29T05:00:24.243Z,19.00
2018-11-29T05:01:24.240Z,19.90
2018-11-29T05:02:24.225Z,19.50
2018-11-29T05:03:24.211Z,18.30
2018-11-29T05:04:24.199Z,18.80
2018-11-29T05:05:24.189Z,19.60
2018-11-29T05:06:24.189Z,17.70
2018-11-29T05:07:24.173Z,19.20
2018-11-29T05:08:24.154Z,22.40
2018-11-29T05:09:24.153Z,26.80
2018-11-29T05:10:24.140Z,23.90
2018-11-29T05:11:24.147Z,25.40
2018-11-29T05:12:24.116Z,27.50
2018-11-29T05:13:24.110Z,25.10
2018-11-29T05:14:24.096Z,24.30
2018-11-29T05:15:24.086Z,29.00
2018-11-29T05:16:24.089Z,26.30
2018-11-29T05:17:24.071Z,28.70
2018-11-29T05:18:24.055Z,26.50
2018-11-29T05:19:24.047Z,24.10
2018-11-29T05:20:24.036Z,25.60
2018-11-29T05:21:24.036Z,25.60
2018-11-29T05:22:24.014Z,25.50
2018-11-29T05:23:24.001Z,24.40
2018-11-29T05:24:23.992Z,23.00
2018-11-29T05:25:23.989Z,25.90
2018-11-29T05:26:23.983Z,25.20
2018-11-29T05:27:23.965Z,23.80
2018-11-29T05:28:23.957Z,23.00
2018-11-29T05:29:23.940Z,24.90
2018-11-29T05:30:23.928Z,23.40
2018-11-29T05:31:23.936Z,23.70
2018-11-29T05:32:23.910Z,23.20
2018-11-29T05:33:23.901Z,21.50
2018-11-29T05:34:23.889Z,20.80
2018-11-29T05:35:23.883Z,29.60
2018-11-29T05:36:23.890Z,27.10
2018-11-29T05:37:23.864Z,28.10
2018-11-29T05:38:23.850Z,27.20
2018-11-29T05:39:23.841Z,28.00
2018-11-29T05:40:23.827Z,29.60
2018-11-29T05:41:23.814Z,28.60
2018-11-29T05:42:23.822Z,29.30
2018-11-29T05:43:23.795Z,30.20
2018-11-29T05:44:23.785Z,32.30
2018-11-29T05:45:23.772Z,33.00
2018-11-29T05:46:23.769Z,30.80
2018-11-29T05:47:23.769Z,34.20
2018-11-29T05:48:23.744Z,30.90
2018-11-29T05:49:23.744Z,31.80
2018-11-29T05:50:23.729Z,30.30
2018-11-29T05:51:23.722Z,32.40
2018-11-29T05:52:23.717Z,28.80
2018-11-29T05:53:23.697Z,29.60
2018-11-29T05:54:23.685Z,32.30
2018-11-29T05:55:23.669Z,32.40
2018-11-29T05:56:23.661Z,31.10
2018-11-29T05:57:23.665Z,35.00
2018-11-29T05:58:23.642Z,32.50
2018-11-29T05:59:23.630Z,30.30
2018-11-29T06:00:23.622Z,28.90
2018-11-29T06:01:23.608Z,30.70
2018-11-29T06:02:23.609Z,34.80
2018-11-29T06:03:23.594Z,39.70
2018-11-29T06:04:23.577Z,37.90
2018-11-29T06:05:23.568Z,35.40
2018-11-29T06:06:23.559Z,36.50
2018-11-29T06:07:23.567Z,36.70
2018-11-29T06:08:23.549Z,34.00
2018-11-29T06:09:23.532Z,36.40
2018-11-29T06:10:23.518Z,34.80
2018-11-29T06:11:23.503Z,38.90
2018-11-29T06:12:23.510Z,36.00
2018-11-29T06:13:23.482Z,32.30
2018-11-29T06:14:23.471Z,35.30
2018-11-29T06:15:23.457Z,39.80
2018-11-29T06:16:23.462Z,37.20
2018-11-29T06:17:23.450Z,36.30
2018-11-29T06:18:23.433Z,35.50
2018-11-29T06:19:23.418Z,35.00
2018-11-29T06:20:23.412Z,35.20
2018-11-29T06:21:23.397Z,34.30
2018-11-29T06:22:23.399Z,35.50
2018-11-29T06:23:23.376Z,29.20
2018-11-29T06:24:23.368Z,31.60
2018-11-29T06:25:23.360Z,34.00
2018-11-29T06:26:23.361Z,32.20
2018-11-29T06:27:23.350Z,31.80
2018-11-29T06:28:23.328Z,30.90
2018-11-29T06:29:23.319Z,32.70
2018-11-29T06:30:23.296Z,35.00
2018-11-29T06:31:23.292Z,33.00
2018-11-29T06:32:23.306Z,29.90
2018-11-29T06:33:23.269Z,37.30
2018-11-29T06:34:23.253Z,45.00
2018-11-29T06:35:23.245Z,37.70
2018-11-29T06:36:23.239Z,36.90
2018-11-29T06:37:23.225Z,32.30
2018-11-29T06:38:23.227Z,32.70
2018-11-29T06:39:23.215Z,37.20
2018-11-29T06:40:23.202Z,34.00
2018-11-29T06:41:23.178Z,33.00
2018-11-29T06:42:23.173Z,35.60
2018-11-29T06:43:23.167Z,30.80
2018-11-29T06:44:23.154Z,32.10
2018-11-29T06:45:23.138Z,32.30
2018-11-29T06:46:23.129Z,30.70
2018-11-29T06:47:23.117Z,39.60
2018-11-29T06:48:23.118Z,37.00
2018-11-29T06:49:23.101Z,40.40
2018-11-29T06:50:23.087Z,36.70
2018-11-29T06:51:23.085Z,35.00
2018-11-29T06:52:23.068Z,35.30
2018-11-29T06:53:23.067Z,33.40
2018-11-29T06:54:23.045Z,30.70
2018-11-29T06:55:23.042Z,34.50
2018-11-29T06:56:23.025Z,31.20
2018-11-29T06:57:23.012Z,35.10
2018-11-29T06:58:23.012Z,35.70
2018-11-29T06:59:22.997Z,33.60
2018-11-29T07:00:22.985Z,31.70
2018-11-29T07:01:22.966Z,34.10
2018-11-29T07:02:22.962Z,34.10
2018-11-29T07:03:22.959Z,30.30
2018-11-29T07:04:22.936Z,33.20
2018-11-29T07:05:22.926Z,27.90
2018-11-29T07:06:22.921Z,31.40
2018-11-29T07:07:22.923Z,34.00
2018-11-29T07:08:22.917Z,30.50
2018-11-29T07:09:22.886Z,32.40
2018-11-29T07:10:22.887Z,31.70
2018-11-29T07:11:22.861Z,31.40
2018-11-29T07:12:22.851Z,31.10
2018-11-29T07:13:22.859Z,29.30
2018-11-29T07:14:22.836Z,27.90
2018-11-29T07:15:22.821Z,26.60
2018-11-29T07:16:22.823Z,24.30
2018-11-29T07:17:22.804Z,31.00
2018-11-29T07:18:22.805Z,26.60
2018-11-29T07:19:22.782Z,24.90
2018-11-29T07:20:22.769Z,25.00
2018-11-29T07:21:22.758Z,28.00
2018-11-29T07:22:22.749Z,27.20
2018-11-29T07:23:22.753Z,26.10
2018-11-29T07:24:22.732Z,25.70
2018-11-29T07:25:22.720Z,28.70
2018-11-29T07:26:22.712Z,28.60
2018-11-29T07:27:22.700Z,24.90
2018-11-29T07:28:22.707Z,24.30
2018-11-29T07:29:22.682Z,26.60
2018-11-29T07:30:22.674Z,27.10
2018-11-29T07:31:22.658Z,24.90
2018-11-29T07:32:22.650Z,27.10
2018-11-29T07:33:22.645Z,25.20
2018-11-29T07:34:22.632Z,25.90
2018-11-29T07:35:22.615Z,25.60
2018-11-29T07:36:22.606Z,27.70
2018-11-29T07:37:22.601Z,25.00
2018-11-29T07:38:22.599Z,24.30
2018-11-29T07:39:22.574Z,28.70
2018-11-29T07:40:22.568Z,24.90
2018-11-29T07:41:22.557Z,23.50
2018-11-29T07:42:22.542Z,22.70
2018-11-29T07:43:22.548Z,26.60
2018-11-29T07:44:22.527Z,23.60
2018-11-29T07:45:22.512Z,23.80
2018-11-29T07:46:22.504Z,25.70
2018-11-29T07:47:22.489Z,23.50
2018-11-29T07:48:22.494Z,24.30
2018-11-29T07:49:22.472Z,22.60
2018-11-29T07:50:22.467Z,24.00
2018-11-29T07:51:22.448Z,24.30
2018-11-29T07:52:22.441Z,25.70
2018-11-29T07:53:22.492Z,22.40
2018-11-29T07:54:22.429Z,24.60
2018-11-29T07:55:22.411Z,21.80
2018-11-29T07:56:22.399Z,22.00
2018-11-29T07:57:22.385Z,22.50
2018-11-29T07:58:22.380Z,23.80
2018-11-29T07:59:22.390Z,24.50
2018-11-29T08:00:22.355Z,23.20
2018-11-29T08:01:22.347Z,22.40
2018-11-29T08:02:22.340Z,21.30
2018-11-29T08:03:22.323Z,23.00
2018-11-29T08:04:22.333Z,22.10
2018-11-29T08:05:22.301Z,21.60
2018-11-29T08:06:22.308Z,21.40
2018-11-29T08:07:22.286Z,23.20
2018-11-29T08:08:22.282Z,21.90
2018-11-29T08:09:22.293Z,23.50
2018-11-29T08:10:22.256Z,20.20
2018-11-29T08:11:22.250Z,21.30
2018-11-29T08:12:22.241Z,21.90
2018-11-29T08:13:22.226Z,20.60
2018-11-29T08:14:22.231Z,21.20
2018-11-29T08:15:22.202Z,22.00
2018-11-29T08:16:22.194Z,21.90
2018-11-29T08:17:22.181Z,21.30
2018-11-29T08:18:22.174Z,22.90
2018-11-29T08:19:22.182Z,21.60
2018-11-29T08:20:22.150Z,22.20
2018-11-29T08:21:22.140Z,20.90
2018-11-29T08:22:22.127Z,21.00
2018-11-29T08:23:22.123Z,21.40
2018-11-29T08:24:23.383Z,20.60
2018-11-29T08:25:22.100Z,21.30
2018-11-29T08:26:22.087Z,21.90
2018-11-29T08:27:22.080Z,19.70
2018-11-29T08:28:22.073Z,22.20
2018-11-29T08:29:22.073Z,19.80
2018-11-29T08:30:22.061Z,20.80
2018-11-29T08:31:22.035Z,19.20
2018-11-29T08:32:22.031Z,21.60
2018-11-29T08:33:22.018Z,22.20
2018-11-29T08:34:22.017Z,20.40
2018-11-29T08:35:21.992Z,19.80
2018-11-29T08:36:21.988Z,20.30
2018-11-29T08:37:21.978Z,20.30
2018-11-29T08:38:21.963Z,19.00
2018-11-29T08:39:21.970Z,20.00
2018-11-29T08:40:21.943Z,19.70
2018-11-29T08:41:21.934Z,19.30
2018-11-29T08:42:21.924Z,20.80
2018-11-29T08:43:21.923Z,19.60
2018-11-29T08:44:21.911Z,20.30
2018-11-29T08:45:21.891Z,21.10
2018-11-29T08:46:21.879Z,18.20
2018-11-29T08:47:21.871Z,20.10
2018-11-29T08:48:21.862Z,20.00
2018-11-29T08:49:21.877Z,18.00
2018-11-29T08:50:21.850Z,19.00
2018-11-29T08:51:21.829Z,19.70
2018-11-29T08:52:21.817Z,21.50
2018-11-29T08:53:21.815Z,21.30
2018-11-29T08:54:21.808Z,19.90
2018-11-29T08:55:21.785Z,20.90
2018-11-29T08:56:21.777Z,19.50
2018-11-29T08:57:21.766Z,19.60
2018-11-29T08:58:21.755Z,19.10
2018-11-29T08:59:21.763Z,21.90
2018-11-29T09:00:21.732Z,19.10
2018-11-29T09:01:21.724Z,19.70
2018-11-29T09:02:21.708Z,17.70
2018-11-29T09:03:21.699Z,18.70
2018-11-29T09:04:21.717Z,18.60
2018-11-29T09:05:21.678Z,17.20
2018-11-29T09:06:21.671Z,19.90
2018-11-29T09:07:21.670Z,19.10
2018-11-29T09:08:21.652Z,18.00
2018-11-29T09:09:21.638Z,19.50
2018-11-29T09:10:21.648Z,17.60
2018-11-29T09:11:21.622Z,17.70
2018-11-29T09:12:21.615Z,19.70
2018-11-29T09:13:21.604Z,18.90
2018-11-29T09:14:21.591Z,18.70
2018-11-29T09:15:21.588Z,18.40
2018-11-29T09:16:21.568Z,18.50
2018-11-29T09:17:21.558Z,17.70
2018-11-29T09:18:21.551Z,18.90
2018-11-29T09:19:21.540Z,17.80
2018-11-29T09:20:21.544Z,19.30
2018-11-29T09:21:21.518Z,17.90
2018-11-29T09:22:21.506Z,19.30
2018-11-29T09:23:21.504Z,18.30
2018-11-29T09:24:21.486Z,18.30
2018-11-29T09:25:21.498Z,18.90
2018-11-29T09:26:21.468Z,18.00
2018-11-29T09:27:21.456Z,17.70
2018-11-29T09:28:21.471Z,17.30
2018-11-29T09:29:21.445Z,20.10
2018-11-29T09:30:21.436Z,17.50
2018-11-29T09:31:21.413Z,18.80
2018-11-29T09:32:21.400Z,17.10
2018-11-29T09:33:21.396Z,17.10
2018-11-29T09:34:21.396Z,17.40
2018-11-29T09:35:21.387Z,18.40
2018-11-29T09:36:21.931Z,18.00
2018-11-29T09:37:21.353Z,18.00
2018-11-29T09:38:21.347Z,17.50
2018-11-29T09:39:21.327Z,17.20
2018-11-29T09:40:21.340Z,17.90
2018-11-29T09:41:21.309Z,17.60
2018-11-29T09:42:21.296Z,17.00
2018-11-29T09:43:21.289Z,18.50
2018-11-29T09:44:21.291Z,17.40
2018-11-29T09:45:21.279Z,18.00
2018-11-29T09:46:21.260Z,17.90
2018-11-29T09:47:21.253Z,17.20
2018-11-29T09:48:21.241Z,16.80
2018-11-29T09:49:21.229Z,16.20
2018-11-29T09:50:21.237Z,17.00
2018-11-29T09:51:21.206Z,17.20
2018-11-29T09:52:21.201Z,18.10
2018-11-29T09:53:21.180Z,17.20
2018-11-29T09:54:21.174Z,17.20
2018-11-29T09:55:21.210Z,16.30
2018-11-29T09:56:21.159Z,15.60
2018-11-29T09:57:21.141Z,15.00
2018-11-29T09:58:21.131Z,18.10
2018-11-29T09:59:21.125Z,17.00
2018-11-29T10:00:27.197Z,16.30
2018-11-29T10:01:22.112Z,17.10
2018-11-29T10:02:21.099Z,19.00
2018-11-29T10:03:21.080Z,17.60
2018-11-29T10:04:21.071Z,18.40
2018-11-29T10:05:21.062Z,16.30
2018-11-29T10:06:21.066Z,17.10
2018-11-29T10:07:21.044Z,16.90
2018-11-29T10:08:26.126Z,16.60
2018-11-29T10:09:22.016Z,18.00
2018-11-29T10:10:21.007Z,16.30
2018-11-29T10:11:21.012Z,17.30
2018-11-29T10:12:20.994Z,17.50
2018-11-29T10:13:20.999Z,16.30
2018-11-29T10:14:20.979Z,16.20
2018-11-29T10:15:20.971Z,17.00
2018-11-29T10:16:20.975Z,15.80
2018-11-29T10:17:20.937Z,16.00
2018-11-29T10:18:20.955Z,18.10
2018-11-29T10:19:20.922Z,17.10
2018-11-29T10:20:20.911Z,15.50
2018-11-29T10:21:20.906Z,16.10
2018-11-29T10:22:20.890Z,17.00
2018-11-29T10:23:20.878Z,16.20
2018-11-29T10:24:20.862Z,16.10
2018-11-29T10:25:20.870Z,17.40
2018-11-29T10:26:20.865Z,14.80
2018-11-29T10:27:20.829Z,17.00
2018-11-29T10:28:20.831Z,16.20
2018-11-29T10:29:20.813Z,16.50
2018-11-29T10:30:20.798Z,14.70
2018-11-29T10:31:20.969Z,15.00
2018-11-29T10:32:20.791Z,16.50
2018-11-29T10:33:20.771Z,15.80
2018-11-29T10:34:20.760Z,15.90
2018-11-29T10:35:20.745Z,17.10
2018-11-29T10:36:20.775Z,14.20
2018-11-29T10:37:20.731Z,15.90
2018-11-29T10:38:20.773Z,16.70
2018-11-29T10:39:20.728Z,16.10
2018-11-29T10:40:20.704Z,15.60
2018-11-29T10:41:20.713Z,16.00
2018-11-29T10:42:20.708Z,15.50
2018-11-29T10:43:20.677Z,15.50
2018-11-29T10:44:20.662Z,14.90
2018-11-29T10:45:20.643Z,15.00
2018-11-29T10:46:20.635Z,16.00
2018-11-29T10:47:20.638Z,16.00
2018-11-29T10:48:20.622Z,14.30
2018-11-29T10:49:20.600Z,15.30
2018-11-29T10:50:20.605Z,15.80
2018-11-29T10:51:20.586Z,15.30
2018-11-29T10:52:20.598Z,16.90
2018-11-29T10:53:20.588Z,16.60
2018-11-29T10:54:20.560Z,14.80
2018-11-29T10:55:20.546Z,15.20
2018-11-29T10:56:20.540Z,14.70
2018-11-29T10:57:20.546Z,14.90
2018-11-29T10:58:20.523Z,15.60
2018-11-29T10:59:20.517Z,13.80
2018-11-29T11:00:20.491Z,15.20
2018-11-29T11:01:20.481Z,17.00
2018-11-29T11:02:20.500Z,15.70
2018-11-29T11:03:20.467Z,15.90
2018-11-29T11:04:20.520Z,14.60
2018-11-29T11:05:20.465Z,15.80
2018-11-29T11:06:20.429Z,15.80
2018-11-29T11:07:20.434Z,16.20
2018-11-29T11:08:20.415Z,15.20
2018-11-29T11:09:20.396Z,15.30
2018-11-29T11:10:20.386Z,15.50
2018-11-29T11:11:20.380Z,16.70
2018-11-29T11:12:20.380Z,15.40
2018-11-29T11:13:20.353Z,15.90
2018-11-29T11:14:20.345Z,14.90
2018-11-29T11:15:20.334Z,14.40
2018-11-29T11:16:20.324Z,14.60
2018-11-29T11:17:20.326Z,14.50
2018-11-29T11:18:20.299Z,14.40
2018-11-29T11:19:20.298Z,15.30
2018-11-29T11:20:20.278Z,15.40
2018-11-29T11:21:20.268Z,14.60
2018-11-29T11:22:20.278Z,13.00
2018-11-29T11:23:20.254Z,13.70
2018-11-29T11:24:20.242Z,13.70
2018-11-29T11:25:20.234Z,14.60
2018-11-29T11:26:20.219Z,14.60
2018-11-29T11:27:20.228Z,14.30
2018-11-29T11:28:20.204Z,15.60
2018-11-29T11:29:20.189Z,14.80
2018-11-29T11:30:20.424Z,14.60
2018-11-29T11:31:20.164Z,14.60
2018-11-29T11:32:20.172Z,13.10
2018-11-29T11:33:20.149Z,13.50
2018-11-29T11:34:20.136Z,14.10
2018-11-29T11:35:20.128Z,14.90
2018-11-29T11:36:20.119Z,13.50
2018-11-29T11:37:20.120Z,13.50
2018-11-29T11:38:20.092Z,13.80
2018-11-29T11:39:20.085Z,15.90
2018-11-29T11:40:20.078Z,14.70
2018-11-29T11:41:20.068Z,14.30
2018-11-29T11:42:20.142Z,15.80
2018-11-29T11:43:20.047Z,16.00
2018-11-29T11:44:20.045Z,13.80
2018-11-29T11:45:20.021Z,14.20
2018-11-29T11:46:20.013Z,15.30
2018-11-29T11:47:20.018Z,13.90
2018-11-29T11:48:19.993Z,13.60
2018-11-29T11:49:19.979Z,14.70
2018-11-29T11:50:19.972Z,14.10
2018-11-29T11:51:19.965Z,15.00
2018-11-29T11:52:19.973Z,15.20
2018-11-29T11:53:19.941Z,13.40
2018-11-29T11:54:19.930Z,13.30
2018-11-29T11:55:19.917Z,14.50
2018-11-29T11:56:19.911Z,13.90
2018-11-29T11:57:19.914Z,13.40
2018-11-29T11:58:19.887Z,14.80
2018-11-29T11:59:19.886Z,14.70
2018-11-29T12:00:19.868Z,12.90
2018-11-29T12:01:19.855Z,13.80
2018-11-29T12:02:19.868Z,14.10
2018-11-29T12:03:19.835Z,14.90
2018-11-29T12:04:19.826Z,12.80
2018-11-29T12:05:19.810Z,12.90
2018-11-29T12:06:19.814Z,14.30
2018-11-29T12:07:19.792Z,14.70
2018-11-29T12:08:19.794Z,13.80
2018-11-29T12:09:19.790Z,13.90
2018-11-29T12:10:19.762Z,14.00
2018-11-29T12:11:19.750Z,13.10
2018-11-29T12:12:19.742Z,14.10
2018-11-29T12:13:19.751Z,14.20
2018-11-29T12:14:19.721Z,12.90
2018-11-29T12:15:19.723Z,14.10
2018-11-29T12:16:19.704Z,14.70
2018-11-29T12:17:19.691Z,13.90
2018-11-29T12:18:19.694Z,13.50
2018-11-29T12:19:19.675Z,14.40
2018-11-29T12:20:19.656Z,14.40
2018-11-29T12:21:19.646Z,14.50
2018-11-29T12:22:19.634Z,14.00
2018-11-29T12:23:19.637Z,14.60
2018-11-29T12:24:19.618Z,15.30
2018-11-29T12:25:19.618Z,14.10
2018-11-29T12:26:19.596Z,13.80
2018-11-29T12:27:19.593Z,13.60
2018-11-29T12:28:19.595Z,14.40
2018-11-29T12:29:19.565Z,13.80
2018-11-29T12:30:19.559Z,14.40
2018-11-29T12:31:19.544Z,13.00
2018-11-29T12:32:19.562Z,13.70
2018-11-29T12:33:19.536Z,13.70
2018-11-29T12:34:19.511Z,13.30
2018-11-29T12:35:19.500Z,13.40
2018-11-29T12:36:19.489Z,13.50
2018-11-29T12:37:19.477Z,14.20
2018-11-29T12:38:19.504Z,13.30
2018-11-29T12:39:19.457Z,14.50
2018-11-29T12:40:19.444Z,13.00
2018-11-29T12:41:19.438Z,12.50
2018-11-29T12:42:19.436Z,13.30
2018-11-29T12:43:19.439Z,12.50
2018-11-29T12:44:19.411Z,13.70
2018-11-29T12:45:19.392Z,13.00
2018-11-29T12:46:19.387Z,12.70
2018-11-29T12:47:19.381Z,14.50
2018-11-29T12:48:19.383Z,13.30
2018-11-29T12:49:19.367Z,13.20
2018-11-29T12:50:19.347Z,12.50
2018-11-29T12:51:19.337Z,13.10
2018-11-29T12:52:19.336Z,12.60